Latest Weather Observations for Eucla

IDW60801

Issued at 10:03 pm WST Sunday 19 April 2015 (issued every 30 minutes, with the page automatically refreshed every 10 minutes)

About weather observations | Map of weather stations | Latest weather observations for WA | Other Formats
Station Details ID: 011003 Name: EUCLA Lat: -31.68 Lon: 128.90 Height: 93.1 m
Data from the previous 72 hours. | See also: Recent months at Eucla
Date/Time
WST
Temp
°C
App
Temp
°C
Dew
Point
Rel
Hum
%
Delta-T
°C
Wind Press
QNH
hPa
Press
MSL
hPa
Rain
since 9 am
mm
Dir
 
Spd
km/h
Gust
km/h
Spd
kts
Gust
kts
19/10:00pm 14.1 11.8 8.9 71 2.6 NE 11 15 6 8 1035.2 1035.0 0.0
19/09:30pm 14.8 12.5 9.0 68 2.9 ENE 11 19 6 10 1035.3 1035.1 0.0
19/09:00pm 15.6 13.8 9.5 67 3.1 ENE 9 13 5 7 1035.4 1035.2 0.0
19/08:30pm 15.5 12.6 9.6 68 3.1 ENE 15 24 8 13 1035.3 1035.1 0.0
19/08:00pm 15.6 12.6 7.9 60 3.8 E 13 19 7 10 1035.0 1034.8 0.0
19/07:30pm 15.4 12.4 7.7 60 3.9 E 13 26 7 14 1034.8 1034.6 0.0
19/07:00pm 15.8 12.4 7.8 59 4.0 E 15 24 8 13 1034.6 1034.4 0.0
19/06:30pm 15.3 12.9 8.5 64 3.5 ENE 11 15 6 8 1034.4 1034.2 0.0
19/06:00pm 15.5 12.6 8.0 61 3.7 E 13 19 7 10 1034.2 1034.0 0.0
19/05:30pm 16.1 12.9 8.3 60 4.0 E 15 24 8 13 1033.7 1033.5 0.0
19/05:00pm 16.4 12.9 8.6 60 4.0 E 17 24 9 13 1033.4 1033.2 0.0
19/04:30pm 16.7 12.7 8.1 57 4.4 E 19 28 10 15 1033.0 1032.8 0.0
19/04:00pm 17.5 13.5 8.9 57 4.4 ESE 20 32 11 17 1032.5 1032.3 0.0
19/03:30pm 18.0 13.7 7.7 51 5.2 ESE 20 32 11 17 1032.5 1032.3 0.0
19/03:00pm 18.7 14.2 8.4 51 5.3 ESE 22 37 12 20 1032.5 1032.3 0.0
19/02:30pm 18.4 13.9 8.4 52 5.2 ESE 22 37 12 20 1032.5 1032.3 0.0
19/02:00pm 18.6 13.6 8.0 50 5.4 ESE 24 35 13 19 1032.5 1032.3 0.0
19/01:30pm 19.0 14.3 7.8 48 5.8 ESE 22 33 12 18 1032.5 1032.3 0.0
19/01:00pm 18.4 13.1 6.9 47 5.7 ESE 24 35 13 19 1032.7 1032.5 0.0
19/12:30pm 18.7 13.6 7.5 48 5.7 ESE 24 41 13 22 1032.7 1032.5 0.0
19/12:00pm 18.5 13.5 7.9 50 5.4 E 24 39 13 21 1032.9 1032.7 0.0
19/11:30am 18.2 13.8 9.0 55 4.8 ESE 22 35 12 19 1033.3 1033.1 0.0
19/11:00am 17.5 13.2 9.2 58 4.3 E 22 35 12 19 1033.6 1033.4 0.0
19/10:30am 18.3 13.5 8.8 54 5.0 E 24 39 13 21 1033.6 1033.4 0.0
19/10:00am 17.5 13.2 9.2 58 4.3 ESE 22 37 12 20 1033.8 1033.6 0.0
19/09:30am 17.9 14.1 9.8 59 4.3 ESE 20 32 11 17 1033.8 1033.6 0.0
19/09:00am 17.5 13.7 9.9 61 4.0 ESE 20 33 11 18 1033.6 1033.4 1.6
19/08:30am 18.3 13.4 8.6 53 5.0 ESE 24 37 13 20 1033.6 1033.4 1.6
19/08:00am 16.9 12.8 8.8 59 4.2 E 20 32 11 17 1033.3 1033.1 1.6
19/07:30am 17.9 14.3 8.5 54 4.8 E 17 28 9 15 1033.0 1032.8 1.6
19/07:00am 16.8 13.0 9.2 61 3.9 ESE 19 30 10 16 1032.3 1032.1 1.6
19/06:30am 15.9 11.8 7.7 58 4.1 ESE 19 28 10 15 1031.8 1031.6 1.6
19/06:00am 15.9 12.0 7.1 56 4.3 ESE 17 28 9 15 1031.4 1031.2 1.6
19/05:30am 15.7 11.7 8.2 61 3.8 ESE 19 32 10 17 1031.0 1030.8 1.6
19/05:00am 15.9 12.1 8.9 63 3.6 ESE 19 35 10 19 1031.0 1030.8 1.6
19/04:30am 16.0 12.6 9.2 64 3.5 ESE 17 28 9 15 1030.6 1030.4 1.6
19/04:00am 15.7 12.2 8.9 64 3.5 ESE 17 28 9 15 1030.2 1030.0 1.6
19/03:30am 16.0 12.4 8.2 60 4.0 ESE 17 26 9 14 1029.9 1029.8 1.6
19/03:00am 15.6 13.4 9.3 66 3.2 ESE 11 17 6 9 1029.7 1029.5 1.6
19/02:30am 15.3 12.7 9.4 68 3.1 SE 13 17 7 9 1029.6 1029.4 1.6
19/02:00am 15.4 12.5 8.2 62 3.6 SE 13 20 7 11 1029.5 1029.3 1.6
19/01:30am 14.7 11.6 7.3 61 3.7 SE 13 17 7 9 1029.6 1029.4 1.6
19/01:00am 15.0 11.6 7.8 62 3.6 SE 15 20 8 11 1029.9 1029.8 1.6
19/12:30am 15.0 11.6 7.8 62 3.6 SE 15 26 8 14 1029.9 1029.8 1.6
19/12:00am 15.4 11.9 8.9 65 3.3 SE 17 32 9 17 1029.8 1029.6 1.6
 
Date/Time
WST
Temp
°C
App
Temp
°C
Dew
Point
Rel
Hum
%
Delta-T
°C
Wind Press
QNH
hPa
Press
MSL
hPa
Rain
since 9 am
mm
Dir
 
Spd
km/h
Gust
km/h
Spd
kts
Gust
kts
18/11:30pm 14.8 11.5 8.1 64 3.4 SE 15 24 8 13 1029.7 1029.5 1.6
18/11:00pm 15.2 11.4 7.7 61 3.7 SE 17 30 9 16 1029.3 1029.1 1.6
18/10:30pm 15.3 11.6 8.1 62 3.6 SSE 17 30 9 16 1029.5 1029.3 1.6
18/10:00pm 15.8 11.8 9.2 65 3.4 SSE 20 32 11 17 1029.5 1029.3 1.6
18/09:30pm 15.7 12.0 10.0 69 3.0 SSE 20 32 11 17 1029.4 1029.2 1.6
18/09:00pm 15.7 11.9 11.3 75 2.4 SE 22 33 12 18 1029.3 1029.1 1.6
18/08:30pm 15.3 12.7 12.1 81 1.7 SSE 17 26 9 14 1029.2 1029.0 1.6
18/08:00pm 15.4 12.3 12.3 82 1.7 SSE 20 35 11 19 1028.9 1028.7 1.4
18/07:30pm 15.5 12.6 12.8 84 1.5 SSE 20 33 11 18 1028.4 1028.2 1.4
18/07:00pm 15.9 13.1 12.6 81 1.8 SSE 19 30 10 16 1028.0 1027.8 1.4
18/06:30pm 15.9 12.8 13.4 85 1.4 SSE 22 35 12 19 1027.5 1027.3 1.4
18/06:00pm 15.8 13.6 13.3 85 1.4 SSE 17 32 9 17 1026.9 1026.7 1.4
18/05:30pm 15.5 12.4 13.3 87 1.2 SSE 22 33 12 18 1026.5 1026.3 1.4
18/05:00pm 15.8 13.6 15.0 95 0.5 SE 20 32 11 17 1026.0 1025.8 1.4
18/04:30pm 16.2 13.7 15.1 93 0.6 SSE 22 32 12 17 1025.5 1025.3 0.0
18/04:00pm 16.7 16.3 15.1 90 0.9 SW 11 17 6 9 1024.9 1024.7 0.0
18/03:30pm 18.5 16.3 13.4 72 2.9 SSW 17 28 9 15 1024.5 1024.3 0.0
18/03:00pm 19.5 17.2 14.1 71 3.1 SSW 19 30 10 16 1024.4 1024.2 0.0
18/02:30pm 20.2 17.3 12.2 60 4.5 SSW 19 26 10 14 1024.1 1023.9 0.0
18/02:00pm 20.4 17.8 11.9 58 4.7 SSW 17 32 9 17 1024.0 1023.8 0.0
18/01:30pm 21.4 19.3 9.9 48 6.2 SW 11 19 6 10 1023.5 1023.3 0.0
18/01:00pm 20.9 17.7 10.1 50 5.8 SSW 17 26 9 14 1023.7 1023.5 0.0
18/12:30pm 21.3 18.9 10.2 49 6.0 SW 13 26 7 14 1023.7 1023.5 0.0
18/12:00pm 20.8 18.0 10.0 50 5.8 S 15 22 8 12 1023.9 1023.7 0.0
18/11:30am 20.5 17.2 9.7 50 5.8 SSW 17 26 9 14 1024.1 1023.9 0.0
18/11:00am 21.1 18.5 10.6 51 5.7 SW 15 28 8 15 1024.3 1024.1 0.0
18/10:30am 20.9 17.8 10.4 51 5.7 WSW 17 24 9 13 1024.5 1024.3 0.0
18/10:00am 20.7 17.7 10.8 53 5.4 W 17 24 9 13 1024.7 1024.5 0.0
18/09:30am 19.6 17.3 10.6 56 4.9 W 13 22 7 12 1024.6 1024.4 0.0
18/09:00am 18.6 15.9 10.2 58 4.5 WNW 15 26 8 14 1024.7 1024.5 0.0
18/08:30am 17.7 15.3 10.1 61 4.0 WNW 13 19 7 10 1024.6 1024.4 0.0
18/08:00am 16.2 13.8 10.1 67 3.2 NW 13 17 7 9 1024.6 1024.4 0.0
18/07:30am 14.7 12.5 9.5 71 2.7 NW 11 17 6 9 1024.3 1024.1 0.0
18/07:00am 12.8 10.0 8.5 75 2.1 NW 13 17 7 9 1023.9 1023.7 0.0
18/06:30am 11.3 8.8 8.0 80 1.6 NW 11 15 6 8 1023.5 1023.3 0.0
18/06:00am 9.3 6.6 7.4 88 0.9 NNW 11 15 6 8 1023.1 1022.9 0.0
18/05:30am 8.9 5.8 7.2 89 0.8 NNW 13 17 7 9 1022.6 1022.4 0.0
18/05:00am 9.0 5.5 7.3 89 0.8 NNW 15 17 8 9 1022.1 1021.9 0.0
18/04:30am 8.2 5.0 7.0 92 0.6 NNW 13 15 7 8 1021.9 1021.7 0.0
18/04:00am 8.1 4.9 6.9 92 0.6 NNW 13 15 7 8 1021.6 1021.4 0.0
18/03:30am 8.4 5.3 7.2 92 0.6 NNW 13 15 7 8 1021.4 1021.2 0.0
18/03:00am 8.5 5.4 7.1 91 0.7 NNW 13 15 7 8 1021.4 1021.2 0.0
18/02:30am 8.6 5.9 7.2 91 0.7 NNW 11 13 6 7 1021.4 1021.2 0.0
18/02:00am 8.5 5.7 7.1 91 0.7 NNW 11 13 6 7 1021.6 1021.4 0.0
18/01:30am 8.7 6.0 7.2 90 0.7 NNW 11 13 6 7 1021.8 1021.6 0.0
18/01:00am 9.0 6.2 7.1 88 0.9 NNW 11 11 6 6 1022.1 1021.9 0.0
18/12:30am 9.2 6.5 7.5 89 0.8 NNW 11 11 6 6 1022.1 1021.9 0.0
18/12:00am 9.4 6.7 7.3 87 1.0 NNW 11 13 6 7 1022.2 1022.0 0.0
 
Date/Time
WST
Temp
°C
App
Temp
°C
Dew
Point
Rel
Hum
%
Delta-T
°C
Wind Press
QNH
hPa
Press
MSL
hPa
Rain
since 9 am
mm
Dir
 
Spd
km/h
Gust
km/h
Spd
kts
Gust
kts
17/11:30pm 9.0 6.3 7.3 89 0.8 NNW 11 11 6 6 1022.1 1021.9 0.0
17/11:00pm 9.3 7.0 7.3 87 0.9 NNW 9 9 5 5 1022.2 1022.0 0.0
17/10:30pm 8.8 8.1 6.9 88 0.9 CALM 0 0 0 0 1022.2 1022.0 0.0
17/10:00pm 9.2 8.6 7.6 90 0.8 CALM 0 0 0 0 1022.3 1022.1 0.0
17/09:30pm 9.0 8.3 7.1 88 0.9 CALM 0 0 0 0 1022.7 1022.5 0.0
17/09:00pm 9.7 7.9 7.3 85 1.1 ESE 6 7 3 4 1022.7 1022.5 0.0
17/08:30pm 10.7 9.1 7.8 82 1.4 SE 6 7 3 4 1022.7 1022.5 0.0
17/08:00pm 12.7 10.9 8.0 73 2.3 SSE 7 9 4 5 1022.8 1022.6 0.0
17/07:30pm 12.8 11.0 8.1 73 2.3 S 7 9 4 5 1023.0 1022.8 0.0
17/07:00pm 13.2 11.5 8.3 72 2.4 SSW 7 11 4 6 1023.0 1022.8 0.0
17/06:30pm 13.2 11.2 8.5 73 2.4 SSW 9 11 5 6 1022.9 1022.7 0.0
17/06:00pm 13.8 12.2 8.8 72 2.5 SSW 7 13 4 7 1022.8 1022.6 0.0
17/05:30pm 14.6 12.7 9.0 69 2.9 SSW 9 13 5 7 1022.5 1022.3 0.0
17/05:00pm 15.4 13.4 8.6 64 3.5 S 9 13 5 7 1022.1 1021.9 0.0
17/04:30pm 16.4 13.9 8.4 59 4.1 S 11 15 6 8 1021.7 1021.5 0.0
17/04:00pm 17.2 14.4 8.6 57 4.4 S 13 17 7 9 1021.7 1021.5 0.0
17/03:30pm 17.8 15.0 8.6 55 4.8 S 13 20 7 11 1021.9 1021.7 0.0
17/03:00pm 18.2 15.1 9.0 55 4.8 S 15 22 8 12 1022.0 1021.8 0.0
17/02:30pm 18.4 15.6 8.7 53 5.1 S 13 20 7 11 1022.1 1021.9 0.0
17/02:00pm 18.3 15.2 8.8 54 4.9 S 15 24 8 13 1022.1 1021.9 0.0
17/01:30pm 18.6 15.7 9.7 56 4.7 SSW 15 24 8 13 1022.3 1022.1 0.0
17/01:00pm 18.7 15.3 9.2 54 5.0 S 17 22 9 12 1022.5 1022.3 0.0
17/12:30pm 18.4 14.9 8.9 54 5.0 S 17 24 9 13 1022.7 1022.5 0.0
17/12:00pm 18.0 15.3 9.1 56 4.6 SSW 13 19 7 10 1023.0 1022.8 0.0
17/11:30am 18.0 15.4 9.4 57 4.5 SSW 13 26 7 14 1023.4 1023.2 0.0
17/11:00am 19.2 17.0 10.7 58 4.6 SSW 13 20 7 11 1023.7 1023.5 0.0
17/10:30am 18.6 15.7 9.7 56 4.7 SSW 15 26 8 14 1023.9 1023.7 0.0
17/10:00am 19.4 17.0 10.1 55 5.0 S 13 19 7 10 1024.1 1023.9 0.0
17/09:30am 18.3 15.4 9.6 57 4.6 S 15 26 8 14 1024.4 1024.2 0.0
17/09:00am 18.1 14.9 10.0 59 4.3 SSE 17 24 9 13 1024.6 1024.4 19.2
17/08:30am 17.7 14.9 10.1 61 4.0 S 15 24 8 13 1024.8 1024.6 19.2
17/08:00am 18.0 15.2 10.1 60 4.2 SSE 15 22 8 12 1024.8 1024.6 19.2
17/07:30am 17.8 15.2 10.7 63 3.8 S 15 24 8 13 1024.9 1024.7 19.2
17/07:00am 16.8 14.5 10.6 67 3.3 SSE 13 22 7 12 1025.0 1024.8 19.2
17/06:30am 16.5 14.2 10.6 68 3.2 SSE 13 20 7 11 1024.9 1024.7 19.2
17/06:00am 15.8 14.4 10.8 72 2.7 SSE 9 15 5 8 1024.8 1024.6 19.2
17/05:30am 16.1 14.3 10.8 71 2.8 SSE 11 19 6 10 1024.7 1024.5 19.2
17/05:00am 16.0 14.2 11.0 72 2.7 SSE 11 15 6 8 1024.6 1024.4 19.2
17/04:30am 16.2 14.4 10.9 71 2.8 SSE 11 15 6 8 1024.5 1024.3 19.2
17/04:00am 16.2 14.0 10.9 71 2.8 SSE 13 19 7 10 1024.4 1024.2 19.2
17/03:30am 16.2 14.5 11.2 72 2.7 SSE 11 15 6 8 1024.4 1024.2 19.2
17/03:00am 16.2 13.9 10.5 69 3.0 SSE 13 17 7 9 1024.3 1024.1 19.2
17/02:30am 16.2 14.2 11.4 73 2.6 SSE 13 19 7 10 1024.2 1024.0 19.2
17/02:00am 16.1 13.8 11.7 75 2.4 SSE 15 20 8 11 1024.3 1024.1 19.2
17/01:30am 16.5 14.2 11.9 74 2.5 SSE 15 24 8 13 1024.4 1024.2 19.2
17/01:00am 16.5 14.7 12.1 75 2.4 SSE 13 20 7 11 1024.6 1024.4 19.2
17/12:30am 16.4 14.1 11.8 74 2.5 SSE 15 22 8 12 1024.6 1024.4 19.2
17/12:00am 16.3 15.1 12.7 79 2.0 SSE 11 17 6 9 1024.6 1024.4 19.2
 
Date/Time
WST
Temp
°C
App
Temp
°C
Dew
Point
Rel
Hum
%
Delta-T
°C
Wind Press
QNH
hPa
Press
MSL
hPa
Rain
since 9 am
mm
Dir
 
Spd
km/h
Gust
km/h
Spd
kts
Gust
kts
16/11:30pm 16.3 14.7 12.8 80 1.9 SSE 13 19 7 10 1024.8 1024.6 19.2
16/11:00pm 16.6 14.9 12.6 77 2.2 SSE 13 19 7 10 1025.1 1024.9 19.2
16/10:30pm 16.5 14.4 12.5 77 2.2 SSE 15 22 8 12 1025.5 1025.3 19.2

Other Formats:

Comma delimited format used in spreadsheet applications
http://www.bom.gov.au/fwo/IDW60801/IDW60801.94647.axf

JavaScript Object Notation format (JSON) in row-major order
http://www.bom.gov.au/fwo/IDW60801/IDW60801.94647.json